createdAt,value
2022-12-19T00:01:26.820Z,-0.09
2022-12-19T00:03:57.063Z,-0.05
2022-12-19T00:06:26.729Z,0.07
2022-12-19T00:09:00.365Z,0.04
2022-12-19T00:11:30.581Z,-0.21
2022-12-19T00:14:00.126Z,-0.09
2022-12-19T00:16:30.664Z,-0.14
2022-12-19T00:19:01.538Z,-0.20
2022-12-19T00:21:34.884Z,-0.14
2022-12-19T00:24:20.076Z,-0.31
2022-12-19T00:26:50.553Z,-0.21
2022-12-19T00:29:20.233Z,-0.15
2022-12-19T00:31:49.744Z,-0.19
2022-12-19T00:34:19.274Z,-0.11
2022-12-19T00:36:48.770Z,-0.41
2022-12-19T00:39:20.787Z,-0.59
2022-12-19T00:41:50.270Z,-0.43
2022-12-19T00:44:19.740Z,-0.31
2022-12-19T00:46:52.330Z,-0.04
2022-12-19T00:49:22.658Z,-0.09
2022-12-19T00:51:52.143Z,-0.18
2022-12-19T00:54:24.237Z,-0.17
2022-12-19T00:56:54.283Z,-0.12
2022-12-19T00:59:26.805Z,-0.47
2022-12-19T01:01:57.479Z,-0.69
2022-12-19T01:04:28.848Z,-0.56
2022-12-19T01:07:02.667Z,-0.75
2022-12-19T01:09:35.667Z,-0.40
2022-12-19T01:12:17.629Z,-0.52
2022-12-19T01:14:47.128Z,-0.59
2022-12-19T01:17:16.621Z,-0.35
2022-12-19T01:19:46.094Z,-0.61
2022-12-19T01:22:15.733Z,-0.75
2022-12-19T01:24:48.091Z,-1.07
2022-12-19T01:27:17.572Z,-1.03
2022-12-19T01:29:52.513Z,-1.13
2022-12-19T01:32:23.324Z,-0.92
2022-12-19T01:34:52.794Z,-1.05
2022-12-19T01:37:22.422Z,-0.75
2022-12-19T01:39:54.483Z,-0.56
2022-12-19T01:42:24.615Z,-0.46
2022-12-19T01:45:33.459Z,-0.39
2022-12-19T01:48:07.916Z,-0.41
2022-12-19T01:50:40.396Z,-0.38
2022-12-19T01:53:17.585Z,-0.32
2022-12-19T01:55:50.215Z,-0.69
2022-12-19T01:58:19.679Z,-0.55
2022-12-19T02:00:49.158Z,-0.83
2022-12-19T02:03:21.354Z,-0.77
2022-12-19T02:05:50.800Z,-0.58
2022-12-19T02:08:20.285Z,-0.47
2022-12-19T02:10:52.449Z,-0.49
2022-12-19T02:13:21.939Z,-0.46
2022-12-19T02:15:54.884Z,-0.63
2022-12-19T02:18:29.554Z,-0.73
2022-12-19T02:21:25.919Z,-0.63
2022-12-19T02:24:21.681Z,-0.60
2022-12-19T02:27:17.348Z,-0.45
2022-12-19T02:30:09.036Z,-0.48
2022-12-19T02:32:44.120Z,-0.36
2022-12-19T02:35:16.690Z,-0.24
2022-12-19T02:37:47.921Z,-0.22
2022-12-19T02:40:20.346Z,-0.18
2022-12-19T02:42:51.555Z,-0.30
2022-12-19T02:45:28.310Z,-0.21
2022-12-19T02:48:04.464Z,-0.32
2022-12-19T02:50:42.103Z,-0.43
2022-12-19T02:53:12.372Z,-0.16
2022-12-19T02:55:45.289Z,0.06
2022-12-19T03:01:45.865Z,-0.28
2022-12-19T03:04:23.246Z,0.01
2022-12-19T03:06:54.902Z,0.31
2022-12-19T03:09:29.369Z,0.41
2022-12-19T03:12:00.418Z,0.35
2022-12-19T03:14:29.676Z,0.57
2022-12-19T03:16:59.271Z,0.62
2022-12-19T03:19:31.429Z,0.01
2022-12-19T03:22:01.013Z,0.01
2022-12-19T03:24:30.582Z,0.01
2022-12-19T03:27:04.171Z,-0.27
2022-12-19T03:29:35.443Z,0.06
2022-12-19T03:32:06.327Z,-0.12
2022-12-19T03:34:41.125Z,0.13
2022-12-19T03:37:13.277Z,-0.33
2022-12-19T03:39:42.877Z,-0.28
2022-12-19T03:42:25.081Z,-0.32
2022-12-19T03:44:54.825Z,-0.19
2022-12-19T03:47:26.601Z,-0.43
2022-12-19T03:49:58.757Z,-0.38
2022-12-19T03:52:30.534Z,-0.52
2022-12-19T03:55:04.031Z,-0.37
2022-12-19T03:57:36.146Z,-0.01
2022-12-19T04:00:07.774Z,-0.42
2022-12-19T04:02:37.906Z,-0.42
2022-12-19T04:05:10.846Z,-0.36
2022-12-19T04:07:40.516Z,-0.17
2022-12-19T04:10:12.126Z,-0.06
2022-12-19T04:12:43.538Z,0.37
2022-12-19T04:15:13.897Z,0.40
2022-12-19T04:17:44.981Z,0.53
2022-12-19T04:20:17.753Z,0.22
2022-12-19T04:22:51.804Z,-0.03
2022-12-19T04:25:27.841Z,-0.07
2022-12-19T04:28:00.207Z,-0.09
2022-12-19T04:30:30.260Z,-0.07
2022-12-19T04:33:07.936Z,-0.31
2022-12-19T04:35:40.178Z,-0.17
2022-12-19T04:38:09.677Z,-0.58
2022-12-19T04:40:41.521Z,-0.58
2022-12-19T04:43:11.674Z,-0.58
2022-12-19T04:45:42.015Z,-0.52
2022-12-19T04:48:12.019Z,-0.36
2022-12-19T04:50:44.146Z,-0.38
2022-12-19T04:53:13.804Z,-0.54
2022-12-19T04:55:44.257Z,-0.47
2022-12-19T04:58:18.945Z,-0.02
2022-12-19T05:00:51.125Z,0.10
2022-12-19T05:03:20.688Z,0.20
2022-12-19T05:05:52.876Z,0.07
2022-12-19T05:08:22.445Z,-0.22
2022-12-19T05:10:51.953Z,0.14
2022-12-19T05:13:21.524Z,0.35
2022-12-19T05:15:58.720Z,0.50
2022-12-19T05:18:28.287Z,0.50
2022-12-19T05:21:00.432Z,0.55
2022-12-19T05:23:30.074Z,0.47
2022-12-19T05:26:00.493Z,0.61
2022-12-19T05:28:30.196Z,0.14
2022-12-19T05:31:05.573Z,0.35
2022-12-19T05:33:35.131Z,0.13
2022-12-19T05:36:08.515Z,-0.22
2022-12-19T05:38:38.283Z,0.11
2022-12-19T05:41:09.927Z,-0.05
2022-12-19T05:43:39.501Z,0.21
2022-12-19T05:46:09.287Z,0.02
2022-12-19T05:48:39.193Z,0.14
2022-12-19T05:51:11.428Z,0.02
2022-12-19T05:53:41.680Z,0.34
2022-12-19T05:56:12.076Z,0.46
2022-12-19T05:58:41.886Z,0.54
2022-12-19T06:01:12.521Z,0.24
2022-12-19T06:03:42.148Z,0.21
2022-12-19T06:06:16.033Z,0.11
2022-12-19T06:08:45.618Z,0.10
2022-12-19T06:11:15.293Z,0.37
2022-12-19T06:13:44.791Z,0.26
2022-12-19T06:16:15.516Z,0.30
2022-12-19T06:18:45.970Z,0.69
2022-12-19T06:21:18.920Z,0.30
2022-12-19T06:23:48.573Z,0.51
2022-12-19T06:26:20.183Z,0.62
2022-12-19T06:28:49.976Z,0.45
2022-12-19T06:31:19.619Z,0.67
2022-12-19T06:33:49.099Z,0.51
2022-12-19T06:36:22.439Z,0.65
2022-12-19T06:38:52.274Z,0.38
2022-12-19T06:41:34.302Z,0.63
2022-12-19T06:44:04.451Z,0.65
2022-12-19T06:46:33.981Z,0.79
2022-12-19T06:49:03.622Z,0.99
2022-12-19T06:51:35.659Z,1.02
2022-12-19T06:54:05.155Z,1.06
2022-12-19T06:56:37.067Z,1.12
2022-12-19T06:59:06.576Z,0.94
2022-12-19T07:01:42.221Z,1.11
2022-12-19T07:04:11.942Z,0.60
2022-12-19T07:06:48.843Z,0.66
2022-12-19T07:09:18.755Z,0.78
2022-12-19T07:11:48.194Z,0.91
2022-12-19T07:14:17.685Z,1.03
2022-12-19T07:16:47.135Z,0.91
2022-12-19T07:19:16.778Z,1.03
2022-12-19T07:21:48.840Z,1.04
2022-12-19T07:24:18.285Z,0.75
2022-12-19T07:26:47.744Z,0.89
2022-12-19T07:29:17.175Z,0.82
2022-12-19T07:31:46.737Z,1.20
2022-12-19T07:34:16.291Z,1.17
2022-12-19T07:36:48.381Z,1.15
2022-12-19T07:39:17.818Z,1.23
2022-12-19T07:41:47.286Z,1.31
2022-12-19T07:44:16.753Z,1.10
2022-12-19T07:46:46.274Z,1.08
2022-12-19T07:49:19.658Z,0.91
2022-12-19T07:51:54.540Z,0.93
2022-12-19T07:54:23.961Z,1.09
2022-12-19T07:56:53.500Z,1.13
2022-12-19T07:59:28.942Z,1.24
2022-12-19T08:02:00.081Z,1.56
2022-12-19T08:04:29.626Z,1.34
2022-12-19T08:07:02.324Z,1.31
2022-12-19T08:09:31.848Z,1.11
2022-12-19T08:12:01.522Z,1.24
2022-12-19T08:14:31.027Z,1.28
2022-12-19T08:19:49.951Z,1.47
2022-12-19T08:22:21.989Z,1.60
2022-12-19T08:24:51.572Z,1.73
2022-12-19T08:27:21.258Z,1.77
2022-12-19T08:29:50.739Z,1.78
2022-12-19T08:32:21.408Z,1.60
2022-12-19T08:34:51.244Z,1.64
2022-12-19T08:37:23.395Z,1.30
2022-12-19T08:39:52.991Z,1.45
2022-12-19T08:42:22.528Z,1.28
2022-12-19T08:44:52.086Z,1.43
2022-12-19T08:47:21.605Z,1.59
2022-12-19T08:49:51.177Z,1.68
2022-12-19T08:52:23.587Z,1.63
2022-12-19T08:54:53.045Z,1.73
2022-12-19T08:57:22.495Z,1.98
2022-12-19T08:59:52.038Z,1.93
2022-12-19T09:02:22.657Z,2.00
2022-12-19T09:06:01.001Z,2.07
2022-12-19T09:07:44.457Z,1.88
2022-12-19T09:10:14.015Z,1.89
2022-12-19T09:12:45.371Z,2.13
2022-12-19T09:15:15.298Z,2.17
2022-12-19T09:17:44.807Z,2.23
2022-12-19T09:20:21.243Z,2.07
2022-12-19T09:22:55.331Z,2.17
2022-12-19T09:25:24.896Z,2.12
2022-12-19T09:28:26.390Z,2.15
2022-12-19T09:30:43.933Z,2.18
2022-12-19T09:33:13.576Z,2.32
2022-12-19T09:35:43.135Z,2.36
2022-12-19T09:38:15.230Z,2.33
2022-12-19T09:40:50.585Z,2.30
2022-12-19T09:43:23.755Z,2.27
2022-12-19T09:45:56.685Z,2.28
2022-12-19T09:48:26.571Z,2.35
2022-12-19T09:51:09.585Z,2.27
2022-12-19T09:53:54.497Z,2.37
2022-12-19T09:56:40.185Z,2.18
2022-12-19T09:59:17.173Z,2.27
2022-12-19T10:01:52.753Z,2.37
2022-12-19T10:04:22.432Z,2.34
2022-12-19T10:07:18.250Z,2.48
2022-12-19T10:12:18.076Z,2.42
2022-12-19T10:12:50.947Z,2.52
2022-12-19T10:15:26.012Z,2.59
2022-12-19T10:18:06.273Z,2.37
2022-12-19T10:20:38.528Z,2.00
2022-12-19T10:23:15.496Z,2.08
2022-12-19T10:25:59.729Z,2.19
2022-12-19T10:28:44.889Z,2.36
2022-12-19T10:31:21.832Z,2.21
2022-12-19T10:33:55.107Z,2.29
2022-12-19T10:36:48.558Z,2.28
2022-12-19T10:39:18.059Z,2.34
2022-12-19T10:41:50.224Z,2.39
2022-12-19T10:44:19.791Z,2.25
2022-12-19T10:46:50.045Z,2.17
2022-12-19T10:49:21.852Z,2.34
2022-12-19T10:52:01.628Z,2.36
2022-12-19T10:54:44.016Z,2.54
2022-12-19T10:57:27.059Z,2.49
2022-12-19T11:00:00.731Z,2.55
2022-12-19T11:02:37.339Z,2.58
2022-12-19T11:05:08.665Z,2.55
2022-12-19T11:07:38.231Z,2.72
2022-12-19T11:11:16.888Z,2.93
2022-12-19T11:18:13.822Z,2.87
2022-12-19T11:24:38.722Z,2.73
2022-12-19T11:29:15.184Z,2.70
2022-12-19T11:30:09.083Z,2.86
2022-12-19T11:30:42.998Z,2.57
2022-12-19T11:30:48.669Z,2.92
2022-12-19T11:34:06.049Z,2.74
2022-12-19T11:36:39.222Z,2.86
2022-12-19T11:39:08.854Z,3.01
2022-12-19T11:41:41.927Z,3.09
2022-12-19T11:44:14.624Z,3.02
2022-12-19T11:46:48.234Z,3.02
2022-12-19T11:49:24.240Z,2.83
2022-12-19T11:51:57.521Z,2.52
2022-12-19T11:54:28.407Z,2.29
2022-12-19T11:56:58.541Z,2.62
2022-12-19T11:59:32.313Z,2.66
2022-12-19T12:02:12.932Z,2.77
2022-12-19T12:05:04.406Z,2.96
2022-12-19T12:09:16.363Z,2.50
2022-12-19T12:16:12.552Z,2.72
2022-12-19T12:21:07.922Z,2.81
2022-12-19T12:30:37.285Z,2.64
2022-12-19T12:31:19.239Z,2.51
2022-12-19T12:31:50.629Z,2.74
2022-12-19T12:31:50.992Z,2.54
2022-12-19T12:31:52.735Z,2.45
2022-12-19T12:31:58.475Z,2.51
2022-12-19T12:35:32.769Z,2.38
2022-12-19T12:39:24.332Z,2.62
2022-12-19T12:42:07.536Z,2.55
2022-12-19T12:44:44.841Z,2.71
2022-12-19T12:47:18.199Z,2.99
2022-12-19T12:49:48.523Z,3.14
2022-12-19T12:52:22.273Z,3.11
2022-12-19T12:54:51.856Z,3.14
2022-12-19T12:57:22.839Z,3.15
2022-12-19T12:59:53.747Z,3.31
2022-12-19T13:02:24.683Z,3.30
2022-12-19T13:04:58.130Z,3.18
2022-12-19T13:07:39.023Z,3.07
2022-12-19T13:10:20.523Z,3.17
2022-12-19T13:13:04.394Z,3.39
2022-12-19T13:15:44.124Z,3.42
2022-12-19T13:18:32.705Z,3.35
2022-12-19T13:21:02.808Z,3.32
2022-12-19T13:23:50.927Z,3.33
2022-12-19T13:26:49.356Z,3.19
2022-12-19T13:29:33.529Z,3.28
2022-12-19T13:32:13.621Z,3.41
2022-12-19T13:34:50.486Z,3.14
2022-12-19T13:39:47.687Z,3.00
2022-12-19T13:40:33.063Z,3.08
2022-12-19T13:43:17.791Z,3.15
2022-12-19T13:45:51.709Z,2.80
2022-12-19T13:48:27.294Z,2.77
2022-12-19T13:50:56.812Z,2.77
2022-12-19T13:53:27.898Z,2.91
2022-12-19T13:56:01.467Z,3.01
2022-12-19T13:58:32.475Z,2.92
2022-12-19T14:01:03.879Z,2.83
2022-12-19T14:03:38.826Z,2.99
2022-12-19T14:06:17.542Z,3.26
2022-12-19T14:08:59.203Z,3.37
2022-12-19T14:13:44.921Z,3.38
2022-12-19T14:14:45.021Z,3.51
2022-12-19T14:17:16.212Z,3.52
2022-12-19T14:19:46.758Z,3.51
2022-12-19T14:22:24.691Z,3.66
2022-12-19T14:25:45.238Z,3.73
2022-12-19T14:28:19.528Z,3.71
2022-12-19T14:30:43.571Z,3.47
2022-12-19T14:33:44.501Z,3.50
2022-12-19T14:36:16.018Z,3.57
2022-12-19T14:39:25.475Z,3.62
2022-12-19T14:42:00.400Z,3.67
2022-12-19T14:52:51.901Z,3.68
2022-12-19T14:54:14.924Z,3.74
2022-12-19T14:54:24.479Z,3.65
2022-12-19T14:54:47.597Z,3.55
2022-12-19T14:59:04.855Z,3.66
2022-12-19T15:01:37.160Z,3.64
2022-12-19T15:04:50.230Z,3.62
2022-12-19T15:07:08.494Z,3.63
2022-12-19T15:11:01.105Z,3.64
2022-12-19T15:14:46.907Z,3.64
2022-12-19T15:15:42.527Z,3.63
2022-12-19T15:18:25.772Z,3.60
2022-12-19T15:20:56.311Z,3.56
2022-12-19T15:23:26.141Z,3.53
2022-12-19T15:26:05.062Z,3.54
2022-12-19T15:28:40.100Z,3.63
2022-12-19T15:31:15.760Z,3.60
2022-12-19T15:34:14.890Z,3.53
2022-12-19T15:36:37.237Z,3.50
2022-12-19T15:39:06.948Z,3.50
2022-12-19T15:41:36.426Z,3.46
2022-12-19T15:44:08.754Z,3.44
2022-12-19T15:46:44.473Z,3.49
2022-12-19T15:49:19.852Z,3.49
2022-12-19T15:51:49.351Z,3.50
2022-12-19T15:57:09.381Z,3.47
2022-12-19T15:59:39.764Z,3.50
2022-12-19T16:02:18.562Z,3.50
2022-12-19T16:04:51.263Z,3.47
2022-12-19T16:07:21.879Z,3.47
2022-12-19T16:09:52.808Z,3.47
2022-12-19T16:12:24.887Z,3.50
2022-12-19T16:14:57.897Z,3.51
2022-12-19T16:17:27.700Z,3.50
2022-12-19T16:19:59.788Z,3.45
2022-12-19T16:22:30.370Z,3.44
2022-12-19T16:24:59.869Z,3.48
2022-12-19T16:27:29.976Z,3.53
2022-12-19T16:29:59.948Z,3.54
2022-12-19T16:32:29.407Z,3.55
2022-12-19T16:35:01.503Z,3.48
2022-12-19T16:37:32.589Z,3.48
2022-12-19T16:40:02.266Z,3.56
2022-12-19T16:42:31.770Z,3.56
2022-12-19T16:45:01.188Z,3.52
2022-12-19T16:47:30.801Z,3.49
2022-12-19T16:50:02.975Z,3.48
2022-12-19T16:52:34.980Z,3.49
2022-12-19T16:55:08.923Z,3.57
2022-12-19T16:57:38.350Z,3.66
2022-12-19T17:00:11.108Z,3.61
2022-12-19T17:02:43.861Z,3.56
2022-12-19T17:05:23.932Z,3.66
2022-12-19T17:07:53.564Z,3.59
2022-12-19T17:10:26.385Z,3.54
2022-12-19T17:12:56.112Z,3.48
2022-12-19T17:15:28.164Z,3.51
2022-12-19T17:17:59.159Z,3.53
2022-12-19T17:20:31.484Z,3.66
2022-12-19T17:23:01.005Z,3.61
2022-12-19T17:25:30.468Z,3.56
2022-12-19T17:27:59.895Z,3.52
2022-12-19T17:30:29.403Z,3.55
2022-12-19T17:32:58.940Z,3.61
2022-12-19T17:35:31.014Z,3.64
2022-12-19T17:38:00.687Z,3.58
2022-12-19T17:40:31.116Z,3.53
2022-12-19T17:43:00.726Z,3.63
2022-12-19T17:45:31.596Z,3.65
2022-12-19T17:48:03.176Z,3.67
2022-12-19T17:50:37.990Z,3.68
2022-12-19T17:53:08.492Z,3.68
2022-12-19T17:55:38.043Z,3.69
2022-12-19T17:58:08.034Z,3.68
2022-12-19T18:00:37.606Z,3.68
2022-12-19T18:03:12.977Z,3.67
2022-12-19T18:05:45.523Z,3.67
2022-12-19T18:08:27.284Z,3.70
2022-12-19T18:10:57.102Z,3.69
2022-12-19T18:13:26.596Z,3.71
2022-12-19T18:15:57.089Z,3.73
2022-12-19T18:18:29.309Z,3.79
2022-12-19T18:21:01.564Z,3.72
2022-12-19T18:23:31.135Z,3.75
2022-12-19T18:26:02.162Z,3.69
2022-12-19T18:28:32.645Z,3.61
2022-12-19T18:31:03.293Z,3.70
2022-12-19T18:33:35.794Z,3.68
2022-12-19T18:36:08.414Z,3.71
2022-12-19T18:38:37.885Z,3.73
2022-12-19T18:41:07.669Z,3.75
2022-12-19T18:43:37.162Z,3.76
2022-12-19T18:46:07.071Z,3.72
2022-12-19T18:48:37.142Z,3.58
2022-12-19T18:51:09.319Z,3.67
2022-12-19T18:53:38.912Z,3.76
2022-12-19T18:56:08.796Z,3.80
2022-12-19T18:58:38.315Z,3.86
2022-12-19T19:01:08.700Z,3.84
2022-12-19T19:03:39.158Z,3.79
2022-12-19T19:06:16.782Z,3.78
2022-12-19T19:08:46.280Z,3.71
2022-12-19T19:11:15.746Z,3.73
2022-12-19T19:13:45.270Z,3.75
2022-12-19T19:16:17.866Z,3.76
2022-12-19T19:18:47.553Z,3.77
2022-12-19T19:21:19.581Z,3.69
2022-12-19T19:23:50.323Z,3.51
2022-12-19T19:26:19.787Z,3.54
2022-12-19T19:28:52.564Z,3.34
2022-12-19T19:31:23.461Z,3.02
2022-12-19T19:33:55.418Z,3.04
2022-12-19T19:36:29.239Z,3.01
2022-12-19T19:38:58.931Z,3.01
2022-12-19T19:41:30.166Z,3.02
2022-12-19T19:43:59.927Z,3.02
2022-12-19T19:46:29.744Z,3.00
2022-12-19T19:48:59.698Z,3.04
2022-12-19T19:51:32.271Z,3.19
2022-12-19T19:54:01.733Z,3.27
2022-12-19T19:56:31.181Z,3.49
2022-12-19T19:59:00.763Z,3.60
2022-12-19T20:01:31.014Z,3.66
2022-12-19T20:04:00.617Z,3.68
2022-12-19T20:06:32.757Z,3.64
2022-12-19T20:09:02.359Z,3.59
2022-12-19T20:11:31.871Z,3.59
2022-12-19T20:14:01.308Z,3.40
2022-12-19T20:16:30.846Z,3.63
2022-12-19T20:19:00.347Z,3.74
2022-12-19T20:21:33.427Z,3.73
2022-12-19T20:24:02.865Z,3.72
2022-12-19T20:26:32.344Z,3.78
2022-12-19T20:29:01.806Z,3.85
2022-12-19T20:31:32.495Z,3.87
2022-12-19T20:34:02.145Z,3.85
2022-12-19T20:36:34.235Z,3.89
2022-12-19T20:39:03.709Z,3.90
2022-12-19T20:41:33.673Z,3.94
2022-12-19T20:44:03.147Z,3.89
2022-12-19T20:46:32.760Z,3.92
2022-12-19T20:49:02.314Z,3.92
2022-12-19T20:51:34.377Z,3.92
2022-12-19T20:54:04.794Z,3.92
2022-12-19T20:56:35.208Z,3.94
2022-12-19T20:59:04.736Z,3.90
2022-12-19T21:01:34.374Z,3.93
2022-12-19T21:04:04.068Z,3.83
2022-12-19T21:06:38.026Z,3.82
2022-12-19T21:09:07.667Z,3.79
2022-12-19T21:11:37.323Z,3.84
2022-12-19T21:14:08.026Z,3.78
2022-12-19T21:16:37.950Z,3.73
2022-12-19T21:19:07.568Z,3.69
2022-12-19T21:21:39.733Z,3.64
2022-12-19T21:24:09.563Z,3.63
2022-12-19T21:26:39.074Z,3.62
2022-12-19T21:29:08.531Z,3.60
2022-12-19T21:31:38.066Z,3.57
2022-12-19T21:34:07.531Z,3.51
2022-12-19T21:36:39.666Z,3.48
2022-12-19T21:39:09.179Z,3.56
2022-12-19T21:41:38.669Z,3.59
2022-12-19T21:44:08.145Z,3.59
2022-12-19T21:46:38.151Z,3.60
2022-12-19T21:49:08.786Z,3.57
2022-12-19T21:51:43.562Z,3.53
2022-12-19T21:54:13.012Z,3.19
2022-12-19T21:56:42.764Z,3.24
2022-12-19T21:59:14.185Z,3.43
2022-12-19T22:01:43.952Z,3.54
2022-12-19T22:04:14.716Z,3.57
2022-12-19T22:06:46.845Z,3.61
2022-12-19T22:09:17.859Z,3.71
2022-12-19T22:11:47.192Z,3.83
2022-12-19T22:14:17.087Z,3.73
2022-12-19T22:16:46.696Z,3.77
2022-12-19T22:19:16.460Z,3.84
2022-12-19T22:21:48.782Z,3.83
2022-12-19T22:24:20.004Z,3.89
2022-12-19T22:26:49.518Z,3.92
2022-12-19T22:29:19.329Z,3.96
2022-12-19T22:31:49.632Z,3.97
2022-12-19T22:34:20.106Z,4.00
2022-12-19T22:36:53.131Z,4.06
2022-12-19T22:39:22.797Z,4.06
2022-12-19T22:41:52.229Z,4.04
2022-12-19T22:44:23.261Z,4.15
2022-12-19T22:46:52.452Z,4.14
2022-12-19T22:49:21.945Z,3.98
2022-12-19T22:51:53.988Z,3.99
2022-12-19T22:54:23.440Z,3.97
2022-12-19T22:56:53.386Z,4.05
2022-12-19T22:59:22.929Z,4.16
2022-12-19T23:01:53.031Z,4.15
2022-12-19T23:04:22.869Z,4.14
2022-12-19T23:06:55.027Z,4.02
2022-12-19T23:09:24.491Z,4.04
2022-12-19T23:11:54.255Z,4.07
2022-12-19T23:14:23.831Z,4.11
2022-12-19T23:16:53.465Z,4.14
2022-12-19T23:19:23.051Z,4.12
2022-12-19T23:21:55.349Z,4.13
2022-12-19T23:24:24.891Z,4.14
2022-12-19T23:26:55.778Z,4.15
2022-12-19T23:29:25.596Z,4.20
2022-12-19T23:31:55.165Z,4.25
2022-12-19T23:34:24.763Z,4.24
2022-12-19T23:37:12.935Z,4.26
2022-12-19T23:39:42.708Z,4.24
2022-12-19T23:42:12.250Z,4.25
2022-12-19T23:44:41.943Z,4.19
2022-12-19T23:47:11.489Z,3.84
2022-12-19T23:49:41.413Z,3.96
2022-12-19T23:52:13.573Z,4.09
2022-12-19T23:54:43.106Z,4.14
2022-12-19T23:57:12.643Z,4.18
2022-12-19T23:59:42.218Z,4.20
